| time (UTC) | temp F | wind direction | speed knots | gust knots | rain 1hr in | rain 24hr in | rain mn in | humidity % | barometer mb |
| 20260906122002 | 68 | 278 | 0.0 | 0.0 | 0.00 | 0.00 | 0.00 | 99 | 1011.8 |
| 20260906120002 | 67 | 281 | 0.0 | 0.0 | 0.00 | 0.00 | 0.00 | 99 | 1011.4 |
| 20260906115502 | 67 | 279 | 0.0 | 0.0 | 0.00 | 0.00 | 0.00 | 99 | 1011.3 |
| 20260906115002 | 67 | 274 | 0.0 | 0.0 | 0.00 | 0.00 | 0.00 | 99 | 1011.3 |
| 20260906114502 | 67 | 280 | 0.0 | 0.0 | 0.00 | 0.00 | 0.00 | 99 | 1011.1 |
| 20260906113502 | 67 | 278 | 0.0 | 0.0 | 0.00 | 0.00 | 0.00 | 99 | 1011.0 |
| 20260906113002 | 67 | 287 | 0.0 | 0.0 | 0.00 | 0.00 | 0.00 | 99 | 1010.9 |
| 20260906112502 | 67 | 290 | 0.0 | 0.0 | 0.00 | 0.00 | 0.00 | 99 | 1010.9 |
| 20260906111502 | 67 | 283 | 0.0 | 0.0 | 0.00 | 0.00 | 0.00 | 99 | 1010.8 |
| 20260906111002 | 67 | 289 | 0.0 | 0.0 | 0.00 | 0.00 | 0.00 | 99 | 1010.8 |
| 20260906110501 | 67 | 280 | 0.0 | 0.0 | 0.00 | 0.00 | 0.00 | 99 | 1010.8 |
| 20260906105502 | 67 | 297 | 0.0 | 0.0 | 0.00 | 0.00 | 0.00 | 99 | 1010.7 |
| 20260906105002 | 67 | 290 | 0.9 | 1.7 | 0.00 | 0.00 | 0.00 | 99 | 1010.6 |
| 20260906104502 | 67 | 277 | 0.0 | 0.0 | 0.00 | 0.00 | 0.00 | 99 | 1010.9 |
| 20260906104001 | 67 | 300 | 0.0 | 0.0 | 0.00 | 0.00 | 0.00 | 99 | 1010.6 |
| 20260906103501 | 67 | 278 | 0.0 | 0.0 | 0.00 | 0.00 | 0.00 | 99 | 1010.4 |
| 20260906103002 | 67 | 297 | 0.0 | 0.0 | 0.00 | 0.00 | 0.00 | 99 | 1010.4 |
| 20260906102502 | 67 | 289 | 0.9 | 1.7 | 0.00 | 0.00 | 0.00 | 99 | 1010.4 |
| 20260906102002 | 67 | 295 | 0.9 | 1.7 | 0.00 | 0.00 | 0.00 | 99 | 1010.3 |
| 20260906101501 | 68 | 289 | 0.0 | 0.0 | 0.00 | 0.00 | 0.00 | 99 | 1010.3 |
| 20260906101002 | 68 | 285 | 0.0 | 0.0 | 0.00 | 0.00 | 0.00 | 99 | 1010.5 |
| 20260906100502 | 68 | 284 | 0.0 | 0.0 | 0.00 | 0.00 | 0.00 | 99 | 1010.3 |
| 20260906100002 | 68 | 280 | 0.0 | 0.0 | 0.00 | 0.00 | 0.00 | 99 | 1010.3 |
| 20260906095503 | 68 | 291 | 0.9 | 1.7 | 0.00 | 0.00 | 0.00 | 99 | 1010.1 |
| 20260906095002 | 68 | 290 | 0.0 | 0.0 | 0.00 | 0.00 | 0.00 | 99 | 1010.1 |
| 20260906094501 | 67 | 289 | 0.0 | 0.0 | 0.00 | 0.00 | 0.00 | 99 | 1010.1 |
| 20260906093502 | 68 | 279 | 0.0 | 0.0 | 0.00 | 0.00 | 0.00 | 99 | 1010.1 |
| 20260906093002 | 68 | 280 | 0.0 | 0.0 | 0.00 | 0.00 | 0.00 | 99 | 1010.3 |
| 20260906092502 | 68 | 279 | 0.0 | 0.0 | 0.00 | 0.00 | 0.00 | 99 | 1010.3 |
| 20260906092002 | 68 | 281 | 0.0 | 0.0 | 0.00 | 0.00 | 0.00 | 99 | 1010.4 |
| 20260906091501 | 68 | 310 | 0.0 | 0.0 | 0.00 | 0.00 | 0.00 | 99 | 1010.2 |
| 20260906091002 | 68 | 285 | 0.0 | 0.0 | 0.00 | 0.00 | 0.00 | 99 | 1010.0 |
| 20260906090502 | 68 | 285 | 0.0 | 0.0 | 0.00 | 0.00 | 0.00 | 99 | 1010.0 |
| 20260906090002 | 68 | 287 | 0.0 | 0.0 | 0.00 | 0.00 | 0.00 | 99 | 1010.2 |
| 20260906085502 | 68 | 286 | 0.0 | 0.0 | 0.00 | 0.00 | 0.00 | 99 | 1010.3 |
| 20260906085001 | 68 | 281 | 0.0 | 0.0 | 0.00 | 0.00 | 0.00 | 99 | 1009.9 |
| 20260906084502 | 68 | 283 | 0.0 | 0.0 | 0.00 | 0.00 | 0.00 | 99 | 1010.0 |
| 20260906083502 | 68 | 284 | 0.0 | 0.0 | 0.00 | 0.00 | 0.00 | 99 | 1010.0 |
| 20260906083002 | 68 | 283 | 0.0 | 0.0 | 0.00 | 0.00 | 0.00 | 99 | 1009.9 |
| 20260906082501 | 69 | 280 | 0.0 | 0.0 | 0.00 | 0.00 | 0.00 | 99 | 1009.9 |
| 20260906082002 | 69 | 282 | 0.0 | 0.0 | 0.00 | 0.00 | 0.00 | 99 | 1009.9 |
| 20260906081502 | 69 | 283 | 0.0 | 0.0 | 0.00 | 0.00 | 0.00 | 99 | 1010.1 |
| 20260906081002 | 69 | 289 | 0.0 | 0.0 | 0.00 | 0.00 | 0.00 | 99 | 1010.2 |
| 20260906080502 | 69 | 280 | 0.0 | 0.0 | 0.00 | 0.00 | 0.00 | 99 | 1010.3 |
| 20260906080002 | 69 | 279 | 0.0 | 0.0 | 0.00 | 0.00 | 0.00 | 99 | 1010.3 |
| 20260906075501 | 69 | 280 | 0.0 | 0.0 | 0.00 | 0.00 | 0.00 | 99 | 1010.2 |
| 20260906075001 | 69 | 285 | 0.0 | 0.0 | 0.00 | 0.00 | 0.00 | 99 | 1010.4 |
| 20260906074501 | 69 | 280 | 0.0 | 0.0 | 0.00 | 0.00 | 0.00 | 99 | 1010.3 |
| 20260906074002 | 69 | 278 | 0.0 | 0.0 | 0.00 | 0.00 | 0.00 | 99 | 1010.1 |
| 20260906073002 | 69 | 283 | 0.0 | 0.0 | 0.00 | 0.00 | 0.00 | 99 | 1010.1 |
| 20260906072502 | 69 | 279 | 0.0 | 0.0 | 0.00 | 0.00 | 0.00 | 99 | 1010.2 |
| 20260906072002 | 69 | 288 | 0.0 | 0.0 | 0.00 | 0.00 | 0.00 | 99 | 1010.3 |
| 20260906071502 | 69 | 290 | 0.0 | 0.0 | 0.00 | 0.00 | 0.00 | 99 | 1010.2 |
| 20260906071002 | 70 | 281 | 0.0 | 0.0 | 0.00 | 0.00 | 0.00 | 98 | 1010.2 |
| 20260906070502 | 70 | 284 | 0.0 | 0.0 | 0.00 | 0.00 | 0.00 | 98 | 1010.4 |
| 20260906070002 | 70 | 286 | 0.0 | 0.0 | 0.00 | 0.00 | 0.00 | 98 | 1010.0 |
| 20260906065502 | 70 | 287 | 0.0 | 0.0 | 0.00 | 0.00 | 0.00 | 98 | 1010.4 |
| 20260906065002 | 70 | 306 | 0.0 | 0.0 | 0.00 | 0.00 | 0.00 | 98 | 1010.3 |
| 20260906064002 | 70 | 310 | 0.0 | 0.0 | 0.00 | 0.00 | 0.00 | 98 | 1010.3 |
| 20260906063002 | 70 | 289 | 0.0 | 0.0 | 0.00 | 0.00 | 0.00 | 97 | 1010.2 |
| 20260906062502 | 70 | 297 | 0.9 | 1.7 | 0.00 | 0.00 | 0.00 | 97 | 1010.3 |
| 20260906062002 | 71 | 281 | 0.9 | 1.7 | 0.00 | 0.00 | 0.00 | 96 | 1010.0 |
| 20260906061502 | 71 | 289 | 0.0 | 0.0 | 0.00 | 0.00 | 0.00 | 96 | 1010.0 |
| 20260906061002 | 71 | 306 | 0.0 | 0.0 | 0.00 | 0.00 | 0.00 | 96 | 1010.2 |
| 20260906060502 | 71 | 278 | 0.9 | 1.7 | 0.00 | 0.00 | 0.00 | 96 | 1010.2 |
| 20260906060002 | 71 | 1 | 1.7 | 2.6 | 0.00 | 0.00 | 0.00 | 95 | 1010.2 |
| 20260906055502 | 71 | 335 | 1.7 | 2.6 | 0.00 | 0.00 | 0.00 | 95 | 1010.3 |
| 20260906055003 | 71 | 293 | 1.7 | 1.7 | 0.00 | 0.00 | 0.00 | 95 | 1010.1 |
| 20260906054002 | 71 | 339 | 0.9 | 2.6 | 0.00 | 0.00 | 0.00 | 95 | 1010.5 |
| 20260906053502 | 71 | 338 | 1.7 | 2.6 | 0.00 | 0.00 | 0.00 | 94 | 1010.3 |
| 20260906053002 | 72 | 285 | 0.0 | 0.0 | 0.00 | 0.00 | 0.00 | 94 | 1010.4 |
| 20260906052501 | 72 | 280 | 0.9 | 1.7 | 0.00 | 0.00 | 0.00 | 94 | 1010.1 |
| 20260906052001 | 72 | 288 | 0.9 | 1.7 | 0.00 | 0.00 | 0.00 | 94 | 1010.2 |
| 20260906051502 | 72 | 299 | 1.7 | 2.6 | 0.00 | 0.00 | 0.00 | 94 | 1009.9 |
| 20260906050502 | 72 | 277 | 0.0 | 0.0 | 0.00 | 0.00 | 0.00 | 93 | 1010.0 |
| 20260906050002 | 72 | 292 | 0.9 | 1.7 | 0.00 | 0.00 | 0.00 | 93 | 1010.2 |
| 20260906045502 | 72 | 283 | 0.0 | 0.0 | 0.00 | 0.00 | 0.00 | 93 | 1010.1 |
| 20260906045003 | 72 | 7 | 1.7 | 3.5 | 0.00 | 0.00 | 0.00 | 93 | 1010.0 |
| 20260906044501 | 72 | 295 | 1.7 | 2.6 | 0.00 | 0.00 | 0.00 | 93 | 1010.1 |
| 20260906044002 | 72 | 305 | 0.9 | 1.7 | 0.00 | 0.00 | 0.00 | 94 | 1009.8 |
| 20260906043002 | 72 | 326 | 1.7 | 2.6 | 0.00 | 0.00 | 0.00 | 94 | 1009.8 |
| 20260906042502 | 72 | 283 | 0.9 | 1.7 | 0.00 | 0.00 | 0.00 | 94 | 1009.7 |
| 20260906042002 | 72 | 317 | 0.9 | 2.6 | 0.00 | 0.00 | 0.00 | 93 | 1009.5 |
| 20260906041502 | 72 | 325 | 1.7 | 2.6 | 0.00 | 0.00 | 0.00 | 94 | 1009.3 |
| 20260906041002 | 72 | 284 | 0.9 | 1.7 | 0.00 | 0.00 | 0.00 | 94 | 1009.3 |
| 20260906040502 | 72 | 333 | 1.7 | 2.6 | 0.00 | 0.00 | 0.00 | 94 | 1009.2 |
| 20260906040002 | 72 | 308 | 1.7 | 2.6 | 0.00 | 0.00 | 0.00 | 94 | 1009.0 |
| 20260906035502 | 72 | 279 | 0.9 | 1.7 | 0.00 | 0.00 | 0.00 | 94 | 1009.3 |
| 20260906035001 | 71 | 301 | 1.7 | 2.6 | 0.00 | 0.00 | 0.00 | 94 | 1009.5 |
| 20260906034002 | 72 | 8 | 2.6 | 3.5 | 0.00 | 0.00 | 0.00 | 93 | 1009.1 |
| 20260906033502 | 72 | 313 | 0.9 | 2.6 | 0.00 | 0.00 | 0.00 | 93 | 1009.1 |
| 20260906033002 | 72 | 298 | 1.7 | 3.5 | 0.00 | 0.00 | 0.00 | 93 | 1008.9 |
| 20260906032502 | 72 | 46 | 2.6 | 3.5 | 0.00 | 0.00 | 0.00 | 93 | 1008.9 |
| 20260906032001 | 72 | 53 | 3.5 | 4.3 | 0.00 | 0.00 | 0.00 | 93 | 1009.1 |
| 20260906031501 | 72 | 56 | 4.3 | 5.2 | 0.00 | 0.00 | 0.00 | 93 | 1009.1 |
| 20260906031002 | 72 | 67 | 3.5 | 4.3 | 0.00 | 0.00 | 0.00 | 93 | 1009.1 |
| 20260906030502 | 72 | 332 | 1.7 | 2.6 | 0.00 | 0.00 | 0.00 | 92 | 1009.4 |
| 20260906030002 | 72 | 85 | 3.5 | 4.3 | 0.00 | 0.00 | 0.00 | 92 | 1009.1 |
| 20260906025502 | 72 | 307 | 2.6 | 3.5 | 0.00 | 0.00 | 0.00 | 92 | 1009.1 |
| 20260906025002 | 72 | 43 | 3.5 | 6.1 | 0.00 | 0.00 | 0.00 | 92 | 1009.2 |
| 20260906024502 | 72 | 337 | 2.6 | 3.5 | 0.00 | 0.00 | 0.00 | 92 | 1009.2 |
| 20260906024007 | 72 | 322 | 2.6 | 2.6 | 0.00 | 0.00 | 0.00 | 92 | 1009.4 |
| 20260906023502 | 72 | 51 | 1.7 | 2.6 | 0.00 | 0.00 | 0.00 | 92 | 1009.2 |
| 20260906022502 | 72 | 265 | 1.7 | 2.6 | 0.00 | 0.00 | 0.00 | 92 | 1009.1 |
| 20260906022002 | 72 | 281 | 1.7 | 2.6 | 0.00 | 0.00 | 0.00 | 92 | 1009.1 |
| 20260906021501 | 72 | 279 | 0.0 | 0.0 | 0.00 | 0.00 | 0.00 | 92 | 1009.0 |
| 20260906021001 | 72 | 288 | 1.7 | 2.6 | 0.00 | 0.00 | 0.00 | 92 | 1008.9 |
| 20260906020502 | 72 | 80 | 2.6 | 3.5 | 0.00 | 0.00 | 0.00 | 92 | 1009.2 |
| 20260906020002 | 72 | 306 | 1.7 | 2.6 | 0.00 | 0.00 | 0.00 | 92 | 1009.1 |
| 20260906015503 | 72 | 12 | 2.6 | 3.5 | 0.00 | 0.00 | 0.00 | 92 | 1009.1 |
| 20260906015001 | 73 | 309 | 0.9 | 2.6 | 0.00 | 0.00 | 0.00 | 92 | 1009.0 |
| 20260906014502 | 73 | 313 | 0.9 | 1.7 | 0.00 | 0.00 | 0.00 | 91 | 1009.3 |
| 20260906014002 | 73 | 35 | 2.6 | 4.3 | 0.00 | 0.00 | 0.00 | 91 | 1009.1 |
| 20260906013502 | 73 | 291 | 1.7 | 2.6 | 0.00 | 0.00 | 0.00 | 91 | 1009.3 |
| 20260906013002 | 73 | 303 | 1.7 | 2.6 | 0.00 | 0.00 | 0.00 | 92 | 1009.3 |
| 20260906012501 | 73 | 352 | 0.9 | 2.6 | 0.00 | 0.00 | 0.00 | 92 | 1009.2 |
| 20260906011502 | 73 | 140 | 1.7 | 3.5 | 0.00 | 0.00 | 0.00 | 92 | 1009.0 |
| 20260906010002 | 73 | 25 | 3.5 | 4.3 | 0.00 | 0.00 | 0.00 | 91 | 1009.0 |
| 20260906005501 | 73 | 302 | 1.7 | 2.6 | 0.00 | 0.00 | 0.00 | 90 | 1009.1 |
| 20260906005001 | 73 | 51 | 2.6 | 3.5 | 0.00 | 0.00 | 0.00 | 90 | 1008.9 |
| 20260906004502 | 73 | 358 | 1.7 | 2.6 | 0.00 | 0.00 | 0.00 | 90 | 1008.8 |
| 20260906004001 | 73 | 5 | 2.6 | 3.5 | 0.00 | 0.00 | 0.00 | 90 | 1009.1 |
| 20260906003002 | 73 | 288 | 0.9 | 2.6 | 0.00 | 0.00 | 0.00 | 91 | 1008.9 |
| 20260906002501 | 73 | 100 | 3.5 | 5.2 | 0.00 | 0.00 | 0.00 | 92 | 1008.7 |
| 20260906002001 | 72 | 342 | 2.6 | 3.5 | 0.00 | 0.00 | 0.00 | 92 | 1008.9 |
| 20260906001501 | 72 | 328 | 1.7 | 2.6 | 0.00 | 0.00 | 0.00 | 93 | 1008.5 |
| 20260906000502 | 73 | 173 | 1.7 | 2.6 | 0.00 | 0.00 | 0.00 | 93 | 1008.6 |
| 20260906000004 | 73 | 301 | 1.7 | 2.6 | 0.00 | 0.00 | 0.00 | 92 | 1008.4 |
| 20260905235002 | 73 | 37 | 3.5 | 5.2 | 0.00 | 0.00 | 0.00 | 92 | 1008.5 |
| 20260905234502 | 73 | 14 | 2.6 | 3.5 | 0.00 | 0.00 | 0.00 | 91 | 1008.7 |
| 20260905234002 | 74 | 319 | 0.9 | 2.6 | 0.00 | 0.00 | 0.00 | 91 | 1008.6 |
| 20260905233502 | 74 | 24 | 2.6 | 3.5 | 0.00 | 0.00 | 0.00 | 91 | 1008.4 |
| 20260905233002 | 74 | 75 | 2.6 | 4.3 | 0.00 | 0.00 | 0.00 | 91 | 1008.4 |
| 20260905232502 | 74 | 316 | 1.7 | 2.6 | 0.00 | 0.00 | 0.00 | 90 | 1008.4 |
| 20260905232002 | 75 | 0 | 3.5 | 4.3 | 0.00 | 0.00 | 0.00 | 89 | 1008.2 |
| 20260905231502 | 76 | 44 | 2.6 | 2.6 | 0.00 | 0.00 | 0.00 | 87 | 1008.2 |
| 20260905231002 | 77 | 66 | 3.5 | 4.3 | 0.00 | 0.00 | 0.00 | 87 | 1008.1 |
| 20260905230502 | 77 | 296 | 1.7 | 2.6 | 0.00 | 0.00 | 0.00 | 87 | 1008.2 |
| 20260905230001 | 77 | 121 | 1.7 | 3.5 | 0.00 | 0.00 | 0.00 | 86 | 1007.8 |
| 20260905225502 | 78 | 286 | 0.9 | 2.6 | 0.00 | 0.00 | 0.00 | 85 | 1007.9 |
| 20260905225001 | 78 | 90 | 2.6 | 3.5 | 0.00 | 0.00 | 0.00 | 86 | 1007.8 |
| 20260905224001 | 78 | 69 | 2.6 | 3.5 | 0.00 | 0.00 | 0.00 | 84 | 1008.0 |
| 20260905223501 | 79 | 340 | 0.9 | 1.7 | 0.00 | 0.00 | 0.00 | 84 | 1008.0 |
| 20260905222501 | 80 | 326 | 3.5 | 4.3 | 0.00 | 0.00 | 0.00 | 83 | 1007.7 |
| 20260905222002 | 81 | 328 | 1.7 | 2.6 | 0.00 | 0.00 | 0.00 | 81 | 1007.7 |
| 20260905221502 | 80 | 319 | 1.7 | 3.5 | 0.00 | 0.00 | 0.00 | 81 | 1007.6 |
| 20260905221002 | 81 | 281 | 1.7 | 3.5 | 0.00 | 0.00 | 0.00 | 81 | 1007.7 |
| 20260905220502 | 80 | 292 | 2.6 | 3.5 | 0.00 | 0.00 | 0.00 | 82 | 1007.7 |
| 20260905220002 | 80 | 57 | 0.9 | 1.7 | 0.00 | 0.00 | 0.00 | 82 | 1007.7 |
| 20260905215002 | 81 | 76 | 2.6 | 4.3 | 0.00 | 0.00 | 0.00 | 79 | 1007.4 |
| 20260905214502 | 81 | 307 | 0.9 | 1.7 | 0.00 | 0.00 | 0.00 | 79 | 1007.6 |
| 20260905214002 | 82 | 309 | 0.9 | 2.6 | 0.00 | 0.00 | 0.00 | 78 | 1007.6 |
| 20260905213502 | 82 | 55 | 4.3 | 5.2 | 0.00 | 0.00 | 0.00 | 76 | 1007.7 |
| 20260905212002 | 81 | 339 | 0.9 | 1.7 | 0.00 | 0.00 | 0.00 | 80 | 1007.5 |
| 20260905211002 | 80 | 305 | 0.9 | 1.7 | 0.00 | 0.00 | 0.00 | 81 | 1007.7 |
| 20260905210502 | 80 | 316 | 0.9 | 1.7 | 0.00 | 0.00 | 0.00 | 81 | 1007.6 |
| 20260905210002 | 81 | 266 | 1.7 | 2.6 | 0.00 | 0.00 | 0.00 | 81 | 1007.5 |
| 20260905205502 | 82 | 272 | 0.9 | 1.7 | 0.00 | 0.00 | 0.00 | 78 | 1007.7 |
| 20260905205002 | 80 | 359 | 1.7 | 2.6 | 0.00 | 0.00 | 0.00 | 81 | 1007.7 |
| 20260905204502 | 80 | 359 | 1.7 | 2.6 | 0.00 | 0.00 | 0.00 | 81 | 1007.7 |
| 20260905204002 | 81 | 308 | 1.7 | 2.6 | 0.00 | 0.00 | 0.00 | 80 | 1007.7 |
| 20260905203502 | 81 | 71 | 2.6 | 3.5 | 0.00 | 0.00 | 0.00 | 80 | 1007.9 |
| 20260905203002 | 80 | 54 | 3.5 | 4.3 | 0.00 | 0.00 | 0.00 | 81 | 1007.7 |
| 20260905202502 | 81 | 115 | 1.7 | 3.5 | 0.00 | 0.00 | 0.00 | 81 | 1007.8 |
| 20260905202002 | 80 | 87 | 1.7 | 3.5 | 0.00 | 0.00 | 0.00 | 81 | 1008.0 |
| 20260905201002 | 79 | 350 | 0.9 | 1.7 | 0.00 | 0.00 | 0.00 | 85 | 1007.9 |
| 20260905200502 | 79 | 310 | 2.6 | 3.5 | 0.00 | 0.00 | 0.00 | 85 | 1007.9 |
| 20260905200002 | 79 | 319 | 0.9 | 1.7 | 0.00 | 0.00 | 0.00 | 86 | 1007.9 |
| 20260905195502 | 79 | 315 | 0.9 | 2.6 | 0.00 | 0.00 | 0.00 | 84 | 1007.9 |
| 20260905195002 | 79 | 316 | 0.9 | 1.7 | 0.00 | 0.00 | 0.00 | 85 | 1007.9 |
| 20260905194502 | 79 | 328 | 1.7 | 2.6 | 0.00 | 0.00 | 0.00 | 85 | 1008.0 |
| 20260905194002 | 79 | 5 | 2.6 | 3.5 | 0.00 | 0.00 | 0.00 | 85 | 1008.1 |
| 20260905193502 | 79 | 293 | 1.7 | 2.6 | 0.00 | 0.00 | 0.00 | 85 | 1007.9 |
| 20260905193002 | 79 | 301 | 1.7 | 2.6 | 0.00 | 0.00 | 0.00 | 86 | 1008.1 |
| 20260905192501 | 78 | 292 | 0.9 | 1.7 | 0.00 | 0.00 | 0.00 | 86 | 1008.3 |
| 20260905192001 | 79 | 353 | 1.7 | 2.6 | 0.00 | 0.00 | 0.00 | 85 | 1008.1 |
| 20260905191502 | 79 | 288 | 0.9 | 2.6 | 0.00 | 0.00 | 0.00 | 85 | 1008.2 |
| 20260905191002 | 79 | 347 | 1.7 | 3.5 | 0.00 | 0.00 | 0.00 | 85 | 1008.3 |
| 20260905190502 | 80 | 39 | 0.9 | 1.7 | 0.00 | 0.00 | 0.00 | 84 | 1008.1 |
| 20260905190001 | 80 | 318 | 1.7 | 2.6 | 0.00 | 0.00 | 0.00 | 84 | 1008.0 |
| 20260905185501 | 79 | 307 | 0.9 | 1.7 | 0.00 | 0.00 | 0.00 | 86 | 1008.3 |
| 20260905185001 | 79 | 6 | 0.9 | 1.7 | 0.00 | 0.00 | 0.00 | 85 | 1008.2 |
| 20260905184501 | 80 | 294 | 0.9 | 1.7 | 0.00 | 0.00 | 0.00 | 85 | 1008.1 |
| 20260905184002 | 79 | 321 | 1.7 | 2.6 | 0.00 | 0.00 | 0.00 | 85 | 1008.2 |
| 20260905183501 | 80 | 300 | 0.9 | 1.7 | 0.00 | 0.00 | 0.00 | 84 | 1008.1 |
| 20260905182001 | 80 | 319 | 0.9 | 1.7 | 0.00 | 0.00 | 0.00 | 84 | 1008.3 |
| 20260905181501 | 80 | 284 | 1.7 | 2.6 | 0.00 | 0.00 | 0.00 | 85 | 1008.3 |
| 20260905181001 | 80 | 340 | 2.6 | 3.5 | 0.00 | 0.00 | 0.00 | 84 | 1008.1 |
| 20260905180502 | 80 | 273 | 1.7 | 2.6 | 0.00 | 0.00 | 0.00 | 84 | 1008.3 |
| 20260905180002 | 81 | 311 | 0.9 | 1.7 | 0.00 | 0.00 | 0.00 | 84 | 1008.0 |
| 20260905175502 | 80 | 309 | 1.7 | 3.5 | 0.00 | 0.00 | 0.00 | 83 | 1008.3 |
| 20260905175002 | 80 | 269 | 1.7 | 3.5 | 0.00 | 0.00 | 0.00 | 84 | 1008.1 |
| 20260905174502 | 80 | 315 | 0.9 | 1.7 | 0.00 | 0.00 | 0.00 | 84 | 1007.9 |
| 20260905174002 | 81 | 285 | 2.6 | 4.3 | 0.00 | 0.00 | 0.00 | 83 | 1008.1 |
| 20260905173501 | 82 | 311 | 0.9 | 1.7 | 0.00 | 0.00 | 0.00 | 81 | 1008.0 |
| 20260905173002 | 82 | 26 | 1.7 | 2.6 | 0.00 | 0.00 | 0.00 | 80 | 1008.2 |
| 20260905172502 | 83 | 35 | 3.5 | 5.2 | 0.00 | 0.00 | 0.00 | 79 | 1008.2 |
| 20260905172002 | 82 | 341 | 1.7 | 3.5 | 0.00 | 0.00 | 0.00 | 81 | 1008.0 |
| 20260905171502 | 82 | 328 | 1.7 | 3.5 | 0.00 | 0.00 | 0.00 | 82 | 1008.2 |
| 20260905171003 | 82 | 275 | 0.9 | 1.7 | 0.00 | 0.00 | 0.00 | 82 | 1008.1 |
| 20260905170502 | 82 | 303 | 1.7 | 2.6 | 0.00 | 0.00 | 0.00 | 81 | 1008.3 |
| 20260905165501 | 81 | 321 | 1.7 | 1.7 | 0.00 | 0.00 | 0.00 | 84 | 1008.3 |
| 20260905165001 | 81 | 298 | 2.6 | 3.5 | 0.00 | 0.00 | 0.00 | 83 | 1008.3 |
| 20260905164501 | 82 | 53 | 5.2 | 6.1 | 0.00 | 0.00 | 0.00 | 83 | 1008.4 |
| 20260905164002 | 82 | 37 | 3.5 | 6.1 | 0.00 | 0.00 | 0.00 | 82 | 1008.3 |
| 20260905161001 | 83 | 320 | 1.7 | 2.6 | 0.00 | 0.00 | 0.00 | 80 | 1008.0 |
| 20260905160002 | 83 | 320 | 1.7 | 2.6 | 0.00 | 0.00 | 0.00 | 80 | 1008.1 |
| 20260905154502 | 82 | 68 | 2.6 | 3.5 | 0.00 | 0.00 | 0.00 | 82 | 1007.8 |
| 20260905154002 | 82 | 269 | 0.0 | 0.0 | 0.00 | 0.00 | 0.00 | 83 | 1008.0 |
| 20260905153002 | 82 | 308 | 0.9 | 1.7 | 0.00 | 0.00 | 0.00 | 83 | 1007.8 |
| 20260905151502 | 82 | 95 | 3.5 | 4.3 | 0.00 | 0.00 | 0.00 | 83 | 1007.8 |
| 20260905145502 | 80 | 196 | 0.9 | 4.3 | 0.00 | 0.00 | 0.00 | 87 | 1007.6 |
| 20260905145002 | 80 | 196 | 0.9 | 4.3 | 0.00 | 0.00 | 0.00 | 87 | 1007.5 |
| 20260905144502 | 80 | 196 | 0.9 | 4.3 | 0.00 | 0.00 | 0.00 | 87 | 1007.4 |
| 20260905144002 | 80 | 273 | 3.5 | 4.3 | 0.00 | 0.00 | 0.00 | 87 | 1007.5 |
| 20260905143502 | 80 | 63 | 1.7 | 3.5 | 0.00 | 0.00 | 0.00 | 87 | 1007.7 |
| 20260905143002 | 79 | 78 | 2.6 | 2.6 | 0.00 | 0.00 | 0.00 | 85 | 1007.4 |
| 20260905142502 | 79 | 352 | 3.5 | 4.3 | 0.00 | 0.00 | 0.00 | 87 | 1007.5 |
| 20260905142001 | 80 | 354 | 1.7 | 2.6 | 0.00 | 0.00 | 0.00 | 86 | 1007.5 |
| 20260905141503 | 78 | 326 | 1.7 | 2.6 | 0.00 | 0.00 | 0.00 | 87 | 1007.6 |
| 20260905141001 | 78 | 50 | 0.9 | 2.6 | 0.00 | 0.00 | 0.00 | 88 | 1007.5 |
| 20260905140502 | 78 | 2 | 1.7 | 3.5 | 0.00 | 0.00 | 0.00 | 88 | 1007.5 |
| 20260905140002 | 79 | 107 | 2.6 | 3.5 | 0.00 | 0.00 | 0.00 | 88 | 1007.3 |
| 20260905135502 | 77 | 265 | 0.9 | 1.7 | 0.00 | 0.00 | 0.00 | 92 | 1007.2 |
| 20260905135002 | 77 | 294 | 0.9 | 1.7 | 0.00 | 0.00 | 0.00 | 92 | 1007.3 |
| 20260905134502 | 75 | 273 | 0.0 | 0.0 | 0.00 | 0.00 | 0.00 | 96 | 1007.3 |
| 20260905134002 | 74 | 35 | 1.7 | 2.6 | 0.00 | 0.00 | 0.00 | 97 | 1007.5 |
| 20260905133502 | 74 | 46 | 5.2 | 7.8 | 0.00 | 0.00 | 0.00 | 97 | 1007.2 |
| 20260905133002 | 74 | 59 | 2.6 | 3.5 | 0.00 | 0.00 | 0.00 | 98 | 1007.4 |
| 20260905132502 | 74 | 47 | 1.7 | 3.5 | 0.00 | 0.00 | 0.00 | 98 | 1007.7 |
| 20260905132002 | 74 | 60 | 2.6 | 4.3 | 0.00 | 0.00 | 0.00 | 98 | 1007.8 |
| 20260905131502 | 74 | 21 | 1.7 | 2.6 | 0.00 | 0.00 | 0.00 | 98 | 1007.5 |
| 20260905131001 | 74 | 310 | 1.7 | 2.6 | 0.00 | 0.00 | 0.00 | 98 | 1007.5 |
| 20260905130002 | 74 | 311 | 0.0 | 0.0 | 0.00 | 0.00 | 0.00 | 99 | 1007.1 |
| 20260905125502 | 74 | 302 | 1.7 | 2.6 | 0.00 | 0.00 | 0.00 | 99 | 1007.0 |
| 20260905125002 | 74 | 34 | 0.9 | 1.7 | 0.00 | 0.00 | 0.00 | 99 | 1006.8 |
| 20260905124502 | 74 | 294 | 1.7 | 2.6 | 0.00 | 0.00 | 0.00 | 99 | 1006.8 |
| 20260905124002 | 74 | 54 | 0.9 | 1.7 | 0.00 | 0.00 | 0.00 | 99 | 1007.0 |
| 20260905123502 | 74 | 308 | 0.9 | 1.7 | 0.00 | 0.00 | 0.00 | 99 | 1006.7 |
| 20260905123002 | 74 | 279 | 0.9 | 1.7 | 0.00 | 0.00 | 0.00 | 99 | 1006.6 |
| 20260905122503 | 74 | 302 | 0.9 | 1.7 | 0.00 | 0.00 | 0.00 | 99 | 1006.5 |